createdAt,value
2018-04-29T00:01:17.409Z,12.76
2018-04-29T00:03:44.096Z,12.72
2018-04-29T00:06:10.812Z,12.49
2018-04-29T00:08:43.653Z,12.62
2018-04-29T00:11:10.214Z,12.80
2018-04-29T00:13:36.862Z,12.63
2018-04-29T00:16:03.449Z,12.66
2018-04-29T00:18:33.570Z,13.01
2018-04-29T00:21:00.160Z,12.88
2018-04-29T00:23:26.933Z,12.69
2018-04-29T00:25:53.675Z,12.47
2018-04-29T00:28:21.364Z,12.29
2018-04-29T00:30:48.046Z,12.38
2018-04-29T00:33:15.062Z,12.32
2018-04-29T00:35:41.790Z,12.42
2018-04-29T00:38:14.100Z,12.23
2018-04-29T00:40:40.720Z,12.19
2018-04-29T00:43:07.407Z,12.18
2018-04-29T00:45:34.072Z,12.33
2018-04-29T00:48:01.782Z,12.39
2018-04-29T00:50:28.781Z,12.28
2018-04-29T00:52:55.470Z,12.32
2018-04-29T00:55:22.122Z,12.46
2018-04-29T00:57:52.472Z,12.45
2018-04-29T01:00:19.146Z,12.30
2018-04-29T01:02:45.829Z,12.22
2018-04-29T01:05:12.472Z,12.30
2018-04-29T01:07:42.653Z,12.36
2018-04-29T01:10:09.304Z,12.24
2018-04-29T01:12:36.035Z,12.47
2018-04-29T01:15:02.573Z,12.48
2018-04-29T01:17:30.700Z,12.38
2018-04-29T01:19:57.497Z,12.53
2018-04-29T01:22:24.215Z,12.54
2018-04-29T01:24:50.876Z,12.50
2018-04-29T01:27:21.314Z,12.40
2018-04-29T01:29:47.960Z,12.40
2018-04-29T01:32:14.584Z,12.48
2018-04-29T01:34:41.298Z,12.50
2018-04-29T01:37:11.135Z,12.50
2018-04-29T01:39:37.927Z,12.31
2018-04-29T01:42:04.885Z,12.43
2018-04-29T01:44:32.005Z,12.39
2018-04-29T01:46:59.262Z,12.39
2018-04-29T01:49:25.954Z,12.39
2018-04-29T01:51:52.647Z,12.35
2018-04-29T01:54:19.336Z,12.39
2018-04-29T01:56:50.147Z,12.22
2018-04-29T01:59:17.446Z,12.32
2018-04-29T02:01:44.081Z,12.25
2018-04-29T02:04:10.690Z,12.31
2018-04-29T02:06:37.286Z,12.26
2018-04-29T02:09:03.908Z,12.26
2018-04-29T02:11:30.617Z,12.25
2018-04-29T02:13:57.357Z,12.28
2018-04-29T02:18:56.307Z,12.45
2018-04-29T02:21:22.969Z,12.46
2018-04-29T02:23:49.670Z,12.42
2018-04-29T02:26:16.397Z,12.48
2018-04-29T02:28:43.057Z,12.46
2018-04-29T02:31:09.751Z,12.43
2018-04-29T02:33:36.735Z,12.56
2018-04-29T02:36:03.294Z,12.46
2018-04-29T02:38:30.969Z,12.37
2018-04-29T02:40:57.708Z,12.30
2018-04-29T02:43:24.304Z,12.28
2018-04-29T02:45:50.878Z,12.29
2018-04-29T02:48:24.639Z,12.49
2018-04-29T02:50:51.345Z,12.42
2018-04-29T02:53:17.920Z,12.48
2018-04-29T02:55:44.727Z,12.25
2018-04-29T02:58:14.994Z,12.39
2018-04-29T03:00:41.664Z,12.47
2018-04-29T03:03:08.324Z,12.47
2018-04-29T03:05:34.998Z,12.30
2018-04-29T03:08:05.415Z,12.31
2018-04-29T03:10:32.135Z,12.51
2018-04-29T03:12:59.026Z,12.46
2018-04-29T03:15:25.585Z,12.30
2018-04-29T03:17:56.997Z,12.31
2018-04-29T03:20:23.658Z,12.42
2018-04-29T03:22:50.286Z,12.47
2018-04-29T03:25:17.980Z,12.48
2018-04-29T03:27:51.101Z,12.38
2018-04-29T03:30:17.751Z,12.31
2018-04-29T03:32:44.381Z,12.39
2018-04-29T03:35:11.081Z,12.38
2018-04-29T03:37:40.746Z,12.55
2018-04-29T03:40:07.456Z,12.50
2018-04-29T03:42:34.101Z,12.66
2018-04-29T03:45:00.961Z,12.49
2018-04-29T03:47:31.294Z,12.25
2018-04-29T03:49:57.921Z,12.53
2018-04-29T03:52:24.560Z,12.68
2018-04-29T03:54:51.274Z,12.84
2018-04-29T03:57:35.909Z,12.83
2018-04-29T04:00:16.369Z,12.75
2018-04-29T04:02:55.047Z,12.95
2018-04-29T04:05:21.966Z,13.23
2018-04-29T04:07:48.589Z,13.26
2018-04-29T04:10:15.184Z,13.13
2018-04-29T04:12:41.817Z,13.35
2018-04-29T04:15:08.528Z,13.31
2018-04-29T04:17:38.685Z,13.63
2018-04-29T04:20:05.330Z,13.77
2018-04-29T04:22:31.998Z,13.91
2018-04-29T04:24:58.546Z,14.48
2018-04-29T04:27:29.012Z,14.09
2018-04-29T04:29:55.711Z,14.17
2018-04-29T04:32:22.364Z,14.18
2018-04-29T04:34:49.050Z,14.41
2018-04-29T04:37:19.063Z,14.49
2018-04-29T04:39:45.637Z,14.51
2018-04-29T04:42:12.360Z,14.54
2018-04-29T04:44:38.948Z,14.85
2018-04-29T04:47:06.901Z,15.12
2018-04-29T04:49:33.565Z,15.25
2018-04-29T04:52:00.232Z,14.87
2018-04-29T04:54:26.883Z,14.84
2018-04-29T04:56:58.315Z,15.07
2018-04-29T04:59:24.947Z,15.16
2018-04-29T05:01:51.606Z,15.23
2018-04-29T05:04:18.394Z,15.17
2018-04-29T05:06:45.520Z,15.28
2018-04-29T05:09:12.078Z,15.60
2018-04-29T05:11:38.796Z,15.42
2018-04-29T05:14:05.562Z,15.87
2018-04-29T05:16:35.224Z,15.67
2018-04-29T05:19:01.904Z,16.03
2018-04-29T05:21:28.542Z,15.93
2018-04-29T05:23:55.186Z,15.80
2018-04-29T05:26:22.168Z,15.56
2018-04-29T05:28:48.820Z,15.90
2018-04-29T05:31:15.492Z,16.08
2018-04-29T05:33:41.977Z,16.19
2018-04-29T05:36:16.530Z,15.99
2018-04-29T05:38:43.153Z,15.94
2018-04-29T05:41:10.471Z,16.02
2018-04-29T05:43:37.194Z,16.23
2018-04-29T05:46:11.381Z,16.12
2018-04-29T05:48:43.927Z,16.38
2018-04-29T05:51:10.816Z,16.41
2018-04-29T05:53:37.781Z,16.56
2018-04-29T05:56:04.875Z,16.89
2018-04-29T05:58:31.587Z,16.96
2018-04-29T06:00:58.147Z,16.68
2018-04-29T06:03:25.041Z,17.37
2018-04-29T06:06:02.233Z,17.18
2018-04-29T06:08:28.860Z,17.23
2018-04-29T06:10:55.625Z,17.70
2018-04-29T06:13:22.318Z,17.76
2018-04-29T06:15:48.976Z,18.04
2018-04-29T06:18:15.682Z,18.18
2018-04-29T06:20:43.534Z,17.33
2018-04-29T06:23:10.230Z,17.81
2018-04-29T06:25:36.810Z,17.82
2018-04-29T06:28:06.977Z,18.09
2018-04-29T06:30:33.734Z,18.43
2018-04-29T06:33:00.147Z,17.87
2018-04-29T06:35:26.713Z,17.54
2018-04-29T06:37:59.362Z,17.75
2018-04-29T06:40:26.009Z,17.66
2018-04-29T06:42:52.694Z,17.99
2018-04-29T06:45:19.582Z,17.91
2018-04-29T06:47:47.730Z,18.26
2018-04-29T06:50:14.482Z,17.99
2018-04-29T06:52:41.164Z,18.32
2018-04-29T06:55:08.054Z,18.39
2018-04-29T06:57:35.625Z,18.59
2018-04-29T07:00:02.171Z,18.27
2018-04-29T07:02:28.840Z,18.20
2018-04-29T07:04:55.545Z,18.67
2018-04-29T07:07:25.457Z,18.68
2018-04-29T07:09:52.765Z,18.71
2018-04-29T07:12:19.378Z,18.51
2018-04-29T07:14:45.997Z,18.82
2018-04-29T07:17:16.350Z,19.56
2018-04-29T07:19:43.000Z,19.19
2018-04-29T07:22:09.706Z,19.31
2018-04-29T07:24:36.431Z,19.65
2018-04-29T07:27:04.022Z,19.10
2018-04-29T07:29:30.678Z,19.02
2018-04-29T07:31:57.396Z,19.42
2018-04-29T07:34:24.059Z,19.59
2018-04-29T07:36:53.922Z,19.79
2018-04-29T07:39:21.713Z,19.80
2018-04-29T07:41:48.338Z,19.41
2018-04-29T07:44:15.097Z,19.43
2018-04-29T07:46:42.053Z,19.54
2018-04-29T07:49:08.778Z,19.57
2018-04-29T07:51:35.444Z,19.77
2018-04-29T07:54:02.190Z,19.68
2018-04-29T07:56:32.754Z,19.73
2018-04-29T07:58:59.548Z,20.01
2018-04-29T08:01:26.594Z,20.11
2018-04-29T08:03:53.197Z,19.89
2018-04-29T08:06:19.781Z,20.17
2018-04-29T08:08:46.682Z,20.40
2018-04-29T08:11:13.355Z,20.76
2018-04-29T08:13:40.294Z,20.56
2018-04-29T08:16:13.297Z,20.50
2018-04-29T08:18:40.017Z,20.58
2018-04-29T08:21:06.770Z,20.59
2018-04-29T08:23:33.607Z,20.28
2018-04-29T08:26:07.563Z,20.91
2018-04-29T08:28:34.228Z,20.59
2018-04-29T08:31:00.849Z,21.00
2018-04-29T08:33:27.897Z,21.35
2018-04-29T08:35:58.390Z,20.61
2018-04-29T08:38:25.005Z,20.58
2018-04-29T08:40:51.519Z,20.32
2018-04-29T08:43:18.234Z,21.34
2018-04-29T08:45:52.546Z,21.54
2018-04-29T08:48:19.357Z,20.61
2018-04-29T08:50:45.979Z,20.85
2018-04-29T08:53:12.595Z,21.36
2018-04-29T08:55:42.962Z,21.77
2018-04-29T08:58:09.546Z,20.75
2018-04-29T09:00:39.370Z,20.74
2018-04-29T09:03:06.025Z,20.33
2018-04-29T09:05:37.066Z,20.38
2018-04-29T09:08:03.813Z,22.10
2018-04-29T09:10:31.097Z,22.43
2018-04-29T09:12:57.793Z,22.65
2018-04-29T09:15:32.249Z,22.13
2018-04-29T09:17:58.854Z,21.90
2018-04-29T09:20:25.473Z,21.01
2018-04-29T09:22:52.170Z,20.73
2018-04-29T09:25:18.741Z,22.05
2018-04-29T09:27:45.741Z,22.69
2018-04-29T09:30:12.397Z,22.79
2018-04-29T09:32:39.289Z,22.87
2018-04-29T09:35:05.834Z,23.64
2018-04-29T09:37:35.661Z,22.20
2018-04-29T09:40:02.292Z,22.59
2018-04-29T09:42:29.254Z,22.66
2018-04-29T09:44:55.821Z,23.35
2018-04-29T09:47:25.935Z,23.33
2018-04-29T09:49:52.616Z,22.54
2018-04-29T09:52:19.763Z,22.53
2018-04-29T09:54:46.521Z,22.94
2018-04-29T09:57:14.455Z,23.26
2018-04-29T09:59:41.187Z,22.30
2018-04-29T10:02:10.851Z,23.33
2018-04-29T10:04:37.921Z,23.05
2018-04-29T10:07:04.847Z,23.19
2018-04-29T10:09:31.955Z,23.09
2018-04-29T10:11:58.974Z,22.92
2018-04-29T10:14:25.642Z,23.51
2018-04-29T10:16:53.187Z,23.00
2018-04-29T10:19:20.001Z,23.52
2018-04-29T10:21:47.262Z,23.59
2018-04-29T10:24:13.737Z,21.86
2018-04-29T10:26:51.670Z,23.24
2018-04-29T10:29:18.303Z,23.77
2018-04-29T10:31:44.953Z,24.07
2018-04-29T10:34:11.738Z,24.12
2018-04-29T10:36:51.646Z,24.15
2018-04-29T10:39:18.133Z,23.05
2018-04-29T10:41:44.810Z,23.90
2018-04-29T10:44:11.437Z,23.02
2018-04-29T10:46:39.296Z,23.17
2018-04-29T10:49:06.028Z,23.35
2018-04-29T10:51:32.768Z,22.57
2018-04-29T10:53:59.454Z,23.37
2018-04-29T10:56:27.302Z,23.21
2018-04-29T10:58:53.989Z,23.66
2018-04-29T11:01:20.977Z,23.32
2018-04-29T11:03:47.581Z,23.76
2018-04-29T11:06:14.578Z,22.79
2018-04-29T11:08:41.743Z,23.39
2018-04-29T11:11:08.469Z,24.65
2018-04-29T11:13:35.129Z,24.77
2018-04-29T11:16:06.131Z,23.33
2018-04-29T11:18:32.745Z,23.22
2018-04-29T11:20:59.500Z,23.91
2018-04-29T11:23:26.156Z,22.54
2018-04-29T11:25:53.947Z,22.01
2018-04-29T11:28:21.401Z,23.16
2018-04-29T11:30:48.113Z,23.23
2018-04-29T11:33:16.173Z,23.27
2018-04-29T11:35:43.291Z,23.63
2018-04-29T11:38:09.865Z,23.59
2018-04-29T11:40:36.695Z,23.26
2018-04-29T11:43:03.217Z,22.33
2018-04-29T11:45:29.996Z,23.37
2018-04-29T11:47:56.679Z,23.02
2018-04-29T11:50:23.301Z,23.52
2018-04-29T11:52:50.050Z,24.37
2018-04-29T11:55:18.094Z,24.58
2018-04-29T11:57:44.866Z,24.29
2018-04-29T12:00:11.545Z,25.22
2018-04-29T12:02:38.215Z,24.14
2018-04-29T12:05:15.351Z,24.38
2018-04-29T12:07:42.192Z,24.76
2018-04-29T12:10:09.238Z,24.31
2018-04-29T12:12:35.904Z,24.67
2018-04-29T12:15:05.951Z,23.87
2018-04-29T12:17:33.094Z,24.06
2018-04-29T12:19:59.738Z,24.84
2018-04-29T12:22:26.522Z,24.92
2018-04-29T12:24:53.483Z,23.50
2018-04-29T12:27:20.061Z,23.92
2018-04-29T12:29:46.637Z,23.79
2018-04-29T12:32:13.554Z,25.03
2018-04-29T12:34:40.131Z,25.12
2018-04-29T12:37:07.923Z,25.43
2018-04-29T12:39:34.544Z,25.71
2018-04-29T12:42:02.209Z,24.66
2018-04-29T12:44:28.641Z,24.72
2018-04-29T12:47:03.064Z,25.43
2018-04-29T12:49:29.715Z,25.33
2018-04-29T12:51:56.848Z,24.53
2018-04-29T12:54:23.722Z,25.62
2018-04-29T12:56:51.953Z,25.00
2018-04-29T12:59:18.642Z,24.89
2018-04-29T13:01:45.606Z,25.17
2018-04-29T13:04:12.296Z,26.19
2018-04-29T13:06:43.441Z,25.59
2018-04-29T13:09:09.910Z,25.33
2018-04-29T13:11:36.569Z,25.10
2018-04-29T13:14:03.148Z,26.11
2018-04-29T13:16:34.617Z,24.89
2018-04-29T13:19:01.201Z,24.64
2018-04-29T13:21:28.337Z,24.76
2018-04-29T13:23:54.945Z,25.94
2018-04-29T13:26:27.069Z,24.89
2018-04-29T13:28:53.809Z,25.46
2018-04-29T13:31:20.507Z,25.01
2018-04-29T13:33:47.138Z,25.04
2018-04-29T13:36:24.402Z,24.93
2018-04-29T13:38:51.054Z,25.12
2018-04-29T13:41:17.706Z,26.30
2018-04-29T13:43:44.365Z,25.70
2018-04-29T13:46:18.729Z,24.70
2018-04-29T13:48:45.475Z,25.41
2018-04-29T13:51:12.130Z,25.18
2018-04-29T13:53:38.853Z,25.88
2018-04-29T13:56:10.187Z,24.71
2018-04-29T13:58:36.822Z,24.78
2018-04-29T14:01:03.433Z,24.97
2018-04-29T14:03:30.099Z,24.21
2018-04-29T14:06:03.184Z,24.66
2018-04-29T14:08:30.571Z,24.21
2018-04-29T14:10:57.730Z,23.30
2018-04-29T14:13:25.158Z,24.78
2018-04-29T14:15:55.031Z,25.19
2018-04-29T14:18:21.929Z,25.63
2018-04-29T14:20:48.590Z,26.29
2018-04-29T14:23:15.141Z,25.21
2018-04-29T14:25:46.031Z,24.91
2018-04-29T14:28:13.074Z,24.72
2018-04-29T14:30:39.673Z,24.96
2018-04-29T14:33:06.603Z,25.12
2018-04-29T14:35:34.514Z,24.42
2018-04-29T14:38:01.520Z,25.59
2018-04-29T14:40:28.322Z,24.74
2018-04-29T14:42:55.141Z,25.23
2018-04-29T14:45:29.043Z,24.14
2018-04-29T14:47:55.685Z,25.68
2018-04-29T14:50:22.314Z,25.19
2018-04-29T14:52:48.883Z,25.17
2018-04-29T14:55:21.119Z,24.80
2018-04-29T14:57:47.710Z,26.18
2018-04-29T15:00:14.356Z,26.52
2018-04-29T15:02:41.216Z,24.40
2018-04-29T15:05:11.273Z,25.27
2018-04-29T15:07:38.774Z,25.51
2018-04-29T15:10:05.394Z,24.99
2018-04-29T15:12:32.401Z,23.82
2018-04-29T15:15:03.201Z,25.41
2018-04-29T15:17:29.966Z,25.56
2018-04-29T15:19:56.619Z,23.91
2018-04-29T15:22:23.209Z,23.43
2018-04-29T15:24:51.079Z,24.25
2018-04-29T15:27:17.829Z,25.35
2018-04-29T15:29:44.602Z,27.39
2018-04-29T15:32:11.266Z,26.13
2018-04-29T15:34:43.965Z,24.66
2018-04-29T15:37:10.690Z,26.58
2018-04-29T15:39:37.293Z,27.84
2018-04-29T15:42:03.934Z,26.85
2018-04-29T15:44:34.085Z,28.00
2018-04-29T15:47:00.793Z,25.33
2018-04-29T15:49:27.413Z,27.63
2018-04-29T15:51:54.142Z,25.28
2018-04-29T15:54:25.753Z,25.43
2018-04-29T15:56:52.394Z,25.72
2018-04-29T15:59:19.023Z,24.48
2018-04-29T16:01:45.862Z,24.95
2018-04-29T16:04:12.624Z,24.73
2018-04-29T16:06:39.340Z,26.03
2018-04-29T16:09:06.011Z,25.25
2018-04-29T16:11:32.739Z,26.87
2018-04-29T16:13:59.349Z,25.92
2018-04-29T16:16:30.277Z,23.74
2018-04-29T16:18:57.060Z,22.19
2018-04-29T16:21:23.864Z,21.89
2018-04-29T16:23:50.563Z,20.52
2018-04-29T16:26:18.162Z,20.12
2018-04-29T16:28:44.865Z,19.46
2018-04-29T16:31:11.459Z,19.21
2018-04-29T16:33:38.041Z,18.81
2018-04-29T16:36:07.805Z,18.86
2018-04-29T16:38:34.429Z,17.97
2018-04-29T16:41:01.000Z,17.84
2018-04-29T16:43:27.795Z,17.83
2018-04-29T16:45:58.209Z,17.89
2018-04-29T16:48:24.823Z,17.44
2018-04-29T16:50:51.397Z,17.80
2018-04-29T16:53:18.065Z,17.02
2018-04-29T16:55:48.694Z,16.97
2018-04-29T16:58:16.076Z,17.23
2018-04-29T17:00:42.578Z,16.82
2018-04-29T17:03:09.238Z,17.13
2018-04-29T17:05:39.192Z,16.90
2018-04-29T17:08:05.810Z,16.76
2018-04-29T17:10:32.455Z,16.85
2018-04-29T17:12:59.966Z,16.45
2018-04-29T17:15:37.926Z,16.26
2018-04-29T17:18:04.725Z,16.09
2018-04-29T17:20:31.289Z,16.24
2018-04-29T17:22:57.931Z,15.99
2018-04-29T17:25:27.713Z,15.93
2018-04-29T17:27:55.559Z,15.79
2018-04-29T17:30:22.229Z,15.58
2018-04-29T17:32:48.882Z,15.73
2018-04-29T17:35:21.953Z,15.51
2018-04-29T17:37:48.669Z,15.59
2018-04-29T17:40:15.307Z,15.43
2018-04-29T17:42:42.000Z,15.53
2018-04-29T17:45:08.989Z,15.18
2018-04-29T17:47:35.968Z,15.54
2018-04-29T17:50:02.594Z,15.08
2018-04-29T17:52:29.149Z,15.17
2018-04-29T17:54:59.497Z,15.22
2018-04-29T17:57:26.353Z,15.48
2018-04-29T17:59:53.021Z,14.89
2018-04-29T18:02:19.731Z,15.09
2018-04-29T18:04:47.861Z,14.74
2018-04-29T18:07:14.594Z,15.00
2018-04-29T18:09:41.152Z,14.70
2018-04-29T18:12:07.847Z,14.73
2018-04-29T18:14:37.538Z,14.64
2018-04-29T18:17:04.261Z,14.45
2018-04-29T18:19:30.865Z,14.45
2018-04-29T18:21:57.466Z,14.40
2018-04-29T18:24:25.235Z,14.39
2018-04-29T18:26:51.956Z,14.22
2018-04-29T18:29:18.906Z,14.29
2018-04-29T18:31:45.623Z,14.11
2018-04-29T18:34:13.539Z,14.12
2018-04-29T18:36:40.710Z,14.23
2018-04-29T18:39:07.418Z,14.17
2018-04-29T18:41:34.060Z,14.05
2018-04-29T18:44:01.672Z,14.07
2018-04-29T18:46:28.334Z,14.21
2018-04-29T18:48:55.057Z,13.87
2018-04-29T18:51:22.038Z,14.37
2018-04-29T18:53:49.697Z,14.28
2018-04-29T18:56:16.446Z,14.42
2018-04-29T18:58:43.173Z,14.62
2018-04-29T19:01:10.257Z,14.11
2018-04-29T19:03:36.903Z,14.28
2018-04-29T19:06:07.226Z,13.96
2018-04-29T19:08:33.819Z,14.18
2018-04-29T19:11:00.499Z,13.98
2018-04-29T19:13:27.235Z,13.91
2018-04-29T19:15:54.963Z,13.76
2018-04-29T19:18:21.741Z,13.79
2018-04-29T19:20:48.464Z,13.80
2018-04-29T19:23:15.098Z,13.85
2018-04-29T19:25:44.840Z,13.76
2018-04-29T19:28:11.476Z,13.69
2018-04-29T19:30:38.205Z,13.75
2018-04-29T19:33:04.909Z,13.91
2018-04-29T19:35:35.617Z,14.12
2018-04-29T19:38:02.793Z,13.75
2018-04-29T19:40:29.453Z,13.90
2018-04-29T19:42:56.881Z,13.61
2018-04-29T19:45:24.596Z,13.80
2018-04-29T19:47:51.348Z,13.83
2018-04-29T19:50:18.090Z,13.58
2018-04-29T19:52:44.820Z,13.54
2018-04-29T19:55:11.766Z,13.79
2018-04-29T19:57:38.382Z,13.46
2018-04-29T20:00:04.934Z,13.78
2018-04-29T20:02:31.671Z,13.89
2018-04-29T20:04:59.406Z,13.71
2018-04-29T20:07:26.078Z,13.76
2018-04-29T20:09:52.713Z,13.60
2018-04-29T20:12:19.414Z,13.49
2018-04-29T20:14:46.225Z,13.84
2018-04-29T20:17:12.842Z,13.94
2018-04-29T20:19:39.521Z,13.50
2018-04-29T20:22:06.083Z,13.62
2018-04-29T20:24:32.826Z,13.61
2018-04-29T20:26:59.483Z,13.72
2018-04-29T20:29:26.622Z,14.07
2018-04-29T20:31:53.362Z,14.20
2018-04-29T20:34:20.181Z,14.34
2018-04-29T20:36:46.742Z,14.51
2018-04-29T20:39:14.182Z,13.91
2018-04-29T20:41:40.750Z,14.29
2018-04-29T20:44:13.350Z,14.06
2018-04-29T20:46:40.006Z,13.95
2018-04-29T20:49:06.611Z,13.61
2018-04-29T20:51:33.326Z,13.87
2018-04-29T20:54:03.901Z,14.15
2018-04-29T20:56:30.546Z,13.99
2018-04-29T20:58:57.200Z,14.15
2018-04-29T21:01:24.050Z,14.10
2018-04-29T21:03:58.740Z,13.93
2018-04-29T21:06:25.398Z,13.99
2018-04-29T21:08:52.058Z,14.26
2018-04-29T21:11:18.744Z,14.06
2018-04-29T21:13:46.473Z,14.17
2018-04-29T21:16:12.995Z,14.01
2018-04-29T21:18:39.514Z,13.65
2018-04-29T21:21:06.091Z,13.99
2018-04-29T21:23:32.893Z,13.98
2018-04-29T21:26:00.057Z,13.82
2018-04-29T21:28:26.709Z,14.07
2018-04-29T21:30:53.438Z,14.07
2018-04-29T21:33:19.926Z,14.12
2018-04-29T21:35:47.384Z,14.17
2018-04-29T21:38:14.201Z,13.98
2018-04-29T21:40:40.787Z,13.75
2018-04-29T21:43:07.575Z,13.99
2018-04-29T21:45:39.834Z,14.07
2018-04-29T21:48:06.316Z,13.87
2018-04-29T21:50:33.057Z,13.61
2018-04-29T21:52:59.630Z,13.40
2018-04-29T21:55:27.672Z,13.51
2018-04-29T21:57:54.148Z,13.40
2018-04-29T22:00:20.707Z,13.46
2018-04-29T22:02:47.284Z,13.30
2018-04-29T22:05:14.920Z,13.37
2018-04-29T22:07:41.538Z,13.22
2018-04-29T22:10:08.757Z,13.11
2018-04-29T22:12:35.824Z,13.01
2018-04-29T22:15:02.928Z,13.00
2018-04-29T22:17:29.569Z,13.06
2018-04-29T22:19:56.102Z,12.86
2018-04-29T22:22:22.689Z,12.80
2018-04-29T22:24:52.288Z,12.94
2018-04-29T22:27:18.937Z,13.06
2018-04-29T22:29:45.656Z,13.09
2018-04-29T22:32:12.229Z,13.17
2018-04-29T22:34:44.950Z,13.27
2018-04-29T22:37:11.694Z,13.22
2018-04-29T22:39:38.186Z,13.09
2018-04-29T22:42:04.700Z,12.82
2018-04-29T22:44:32.493Z,12.90
2018-04-29T22:46:59.008Z,13.02
2018-04-29T22:49:25.851Z,12.79
2018-04-29T22:51:52.500Z,12.66
2018-04-29T22:54:22.460Z,12.64
2018-04-29T22:56:49.048Z,12.64
2018-04-29T22:59:16.231Z,12.47
2018-04-29T23:01:43.133Z,12.69
2018-04-29T23:04:10.797Z,12.68
2018-04-29T23:06:37.467Z,12.83
2018-04-29T23:09:05.016Z,12.84
2018-04-29T23:11:31.763Z,12.76
2018-04-29T23:14:02.402Z,12.70
2018-04-29T23:16:29.026Z,12.60
2018-04-29T23:18:55.655Z,12.62
2018-04-29T23:21:22.376Z,12.77
2018-04-29T23:23:49.166Z,12.67
2018-04-29T23:26:15.881Z,12.53
2018-04-29T23:28:42.626Z,12.54
2018-04-29T23:31:09.309Z,12.70
2018-04-29T23:33:36.086Z,12.84
2018-04-29T23:36:02.641Z,12.64
2018-04-29T23:38:29.323Z,12.62
2018-04-29T23:40:56.345Z,12.42
2018-04-29T23:43:26.584Z,12.43
2018-04-29T23:45:53.765Z,12.54
2018-04-29T23:48:20.790Z,12.41
2018-04-29T23:50:47.485Z,12.45
2018-04-29T23:53:24.949Z,12.49
2018-04-29T23:55:51.866Z,12.53
2018-04-29T23:58:18.622Z,12.59
